sensor_id;sensor_type;location;lat;lon;timestamp;temperature;humidity
75931;DHT22;64609;47.052;15.462;2023-09-18T00:00:21;21.90;73.40
75931;DHT22;64609;47.052;15.462;2023-09-18T00:02:48;21.90;74.30
75931;DHT22;64609;47.052;15.462;2023-09-18T00:05:13;22.00;73.30
75931;DHT22;64609;47.052;15.462;2023-09-18T00:07:44;21.90;73.30
75931;DHT22;64609;47.052;15.462;2023-09-18T00:10:11;21.90;73.40
75931;DHT22;64609;47.052;15.462;2023-09-18T00:12:37;21.90;73.30
75931;DHT22;64609;47.052;15.462;2023-09-18T00:15:03;21.90;73.50
75931;DHT22;64609;47.052;15.462;2023-09-18T00:17:28;21.80;73.60
75931;DHT22;64609;47.052;15.462;2023-09-18T00:19:54;21.80;73.60
75931;DHT22;64609;47.052;15.462;2023-09-18T00:22:20;21.80;73.70
75931;DHT22;64609;47.052;15.462;2023-09-18T00:24:47;21.80;73.70
75931;DHT22;64609;47.052;15.462;2023-09-18T00:27:13;21.70;73.80
75931;DHT22;64609;47.052;15.462;2023-09-18T00:29:39;21.70;74.80
75931;DHT22;64609;47.052;15.462;2023-09-18T00:32:05;21.70;73.80
75931;DHT22;64609;47.052;15.462;2023-09-18T00:34:31;21.70;73.80
75931;DHT22;64609;47.052;15.462;2023-09-18T00:36:59;21.70;74.00
75931;DHT22;64609;47.052;15.462;2023-09-18T00:39:26;21.70;74.00
75931;DHT22;64609;47.052;15.462;2023-09-18T00:41:51;21.70;74.00
75931;DHT22;64609;47.052;15.462;2023-09-18T00:44:20;21.70;73.90
75931;DHT22;64609;47.052;15.462;2023-09-18T00:46:47;21.70;73.90
75931;DHT22;64609;47.052;15.462;2023-09-18T00:49:14;21.70;73.90
75931;DHT22;64609;47.052;15.462;2023-09-18T00:51:40;21.60;74.00
75931;DHT22;64609;47.052;15.462;2023-09-18T00:54:06;21.60;73.90
75931;DHT22;64609;47.052;15.462;2023-09-18T00:56:33;21.60;73.90
75931;DHT22;64609;47.052;15.462;2023-09-18T00:58:59;21.60;73.90
75931;DHT22;64609;47.052;15.462;2023-09-18T01:01:27;21.60;73.90
75931;DHT22;64609;47.052;15.462;2023-09-18T01:03:53;21.50;74.00
75931;DHT22;64609;47.052;15.462;2023-09-18T01:06:19;21.50;74.10
75931;DHT22;64609;47.052;15.462;2023-09-18T01:08:47;21.50;74.20
75931;DHT22;64609;47.052;15.462;2023-09-18T01:17:12;21.40;74.10
75931;DHT22;64609;47.052;15.462;2023-09-18T01:19:44;21.40;74.00
75931;DHT22;64609;47.052;15.462;2023-09-18T01:22:15;21.40;74.10
75931;DHT22;64609;47.052;15.462;2023-09-18T01:24:42;21.40;74.30
75931;DHT22;64609;47.052;15.462;2023-09-18T01:27:10;21.30;74.30
75931;DHT22;64609;47.052;15.462;2023-09-18T01:29:36;21.30;74.30
75931;DHT22;64609;47.052;15.462;2023-09-18T01:32:02;21.30;74.20
75931;DHT22;64609;47.052;15.462;2023-09-18T01:34:36;21.30;74.20
75931;DHT22;64609;47.052;15.462;2023-09-18T01:37:04;21.30;74.20
75931;DHT22;64609;47.052;15.462;2023-09-18T01:39:32;21.30;74.20
75931;DHT22;64609;47.052;15.462;2023-09-18T01:41:59;21.20;74.20
75931;DHT22;64609;47.052;15.462;2023-09-18T01:44:27;21.20;74.30
75931;DHT22;64609;47.052;15.462;2023-09-18T01:46:53;21.20;74.40
75931;DHT22;64609;47.052;15.462;2023-09-18T01:49:35;21.10;74.20
75931;DHT22;64609;47.052;15.462;2023-09-18T01:52:02;21.10;74.30
75931;DHT22;64609;47.052;15.462;2023-09-18T01:54:28;21.00;74.30
75931;DHT22;64609;47.052;15.462;2023-09-18T01:56:53;20.90;74.50
75931;DHT22;64609;47.052;15.462;2023-09-18T01:59:20;20.90;74.50
75931;DHT22;64609;47.052;15.462;2023-09-18T02:01:46;20.90;74.30
75931;DHT22;64609;47.052;15.462;2023-09-18T02:04:11;20.90;74.40
75931;DHT22;64609;47.052;15.462;2023-09-18T02:06:37;20.80;74.40
75931;DHT22;64609;47.052;15.462;2023-09-18T02:09:03;20.70;74.50
75931;DHT22;64609;47.052;15.462;2023-09-18T02:11:38;20.80;74.40
75931;DHT22;64609;47.052;15.462;2023-09-18T02:14:04;20.80;74.50
75931;DHT22;64609;47.052;15.462;2023-09-18T02:16:34;20.70;74.40
75931;DHT22;64609;47.052;15.462;2023-09-18T02:19:01;20.70;74.50
75931;DHT22;64609;47.052;15.462;2023-09-18T02:21:27;20.70;74.70
75931;DHT22;64609;47.052;15.462;2023-09-18T02:23:53;20.70;74.70
75931;DHT22;64609;47.052;15.462;2023-09-18T02:26:21;20.60;74.60
75931;DHT22;64609;47.052;15.462;2023-09-18T02:28:47;20.60;74.60
75931;DHT22;64609;47.052;15.462;2023-09-18T02:31:13;20.50;74.50
75931;DHT22;64609;47.052;15.462;2023-09-18T02:33:39;20.60;74.60
75931;DHT22;64609;47.052;15.462;2023-09-18T02:36:05;20.60;74.50
75931;DHT22;64609;47.052;15.462;2023-09-18T02:38:32;20.60;74.40
75931;DHT22;64609;47.052;15.462;2023-09-18T02:40:58;20.60;74.50
75931;DHT22;64609;47.052;15.462;2023-09-18T02:43:23;20.60;74.60
75931;DHT22;64609;47.052;15.462;2023-09-18T02:45:49;20.60;74.70
75931;DHT22;64609;47.052;15.462;2023-09-18T02:48:16;20.60;74.60
75931;DHT22;64609;47.052;15.462;2023-09-18T02:50:42;20.50;74.30
75931;DHT22;64609;47.052;15.462;2023-09-18T02:53:16;20.40;74.30
75931;DHT22;64609;47.052;15.462;2023-09-18T02:55:42;20.30;74.50
75931;DHT22;64609;47.052;15.462;2023-09-18T02:58:09;20.30;74.80
75931;DHT22;64609;47.052;15.462;2023-09-18T03:00:40;20.10;75.40
75931;DHT22;64609;47.052;15.462;2023-09-18T03:03:07;20.00;75.90
75931;DHT22;64609;47.052;15.462;2023-09-18T03:05:32;19.90;76.20
75931;DHT22;64609;47.052;15.462;2023-09-18T03:07:58;20.00;76.20
75931;DHT22;64609;47.052;15.462;2023-09-18T03:10:23;19.90;76.50
75931;DHT22;64609;47.052;15.462;2023-09-18T03:12:49;19.80;76.90
75931;DHT22;64609;47.052;15.462;2023-09-18T03:15:15;19.80;77.20
75931;DHT22;64609;47.052;15.462;2023-09-18T03:17:41;19.90;77.20
75931;DHT22;64609;47.052;15.462;2023-09-18T03:20:08;19.80;77.20
75931;DHT22;64609;47.052;15.462;2023-09-18T03:22:34;19.80;77.40
75931;DHT22;64609;47.052;15.462;2023-09-18T03:25:00;19.90;77.30
75931;DHT22;64609;47.052;15.462;2023-09-18T03:27:25;19.90;77.30
75931;DHT22;64609;47.052;15.462;2023-09-18T03:29:54;19.90;77.10
75931;DHT22;64609;47.052;15.462;2023-09-18T03:32:20;19.90;77.30
75931;DHT22;64609;47.052;15.462;2023-09-18T03:34:46;20.00;77.20
75931;DHT22;64609;47.052;15.462;2023-09-18T03:37:12;20.00;77.00
75931;DHT22;64609;47.052;15.462;2023-09-18T03:39:37;20.00;76.60
75931;DHT22;64609;47.052;15.462;2023-09-18T03:42:03;20.10;76.50
75931;DHT22;64609;47.052;15.462;2023-09-18T03:44:29;20.10;76.40
75931;DHT22;64609;47.052;15.462;2023-09-18T03:46:54;20.10;76.30
75931;DHT22;64609;47.052;15.462;2023-09-18T03:49:20;20.10;76.20
75931;DHT22;64609;47.052;15.462;2023-09-18T03:51:46;20.10;76.10
75931;DHT22;64609;47.052;15.462;2023-09-18T03:54:11;20.10;76.10
75931;DHT22;64609;47.052;15.462;2023-09-18T03:56:37;20.10;76.10
75931;DHT22;64609;47.052;15.462;2023-09-18T03:59:03;20.00;76.00
75931;DHT22;64609;47.052;15.462;2023-09-18T04:01:30;20.00;76.10
75931;DHT22;64609;47.052;15.462;2023-09-18T04:03:56;20.00;76.20
75931;DHT22;64609;47.052;15.462;2023-09-18T04:06:22;20.00;76.10
75931;DHT22;64609;47.052;15.462;2023-09-18T04:08:50;20.00;75.90
75931;DHT22;64609;47.052;15.462;2023-09-18T04:11:16;20.00;75.90
75931;DHT22;64609;47.052;15.462;2023-09-18T04:13:42;20.00;75.90
75931;DHT22;64609;47.052;15.462;2023-09-18T04:16:08;20.00;75.80
75931;DHT22;64609;47.052;15.462;2023-09-18T04:18:33;20.10;75.80
75931;DHT22;64609;47.052;15.462;2023-09-18T04:20:59;20.10;75.80
75931;DHT22;64609;47.052;15.462;2023-09-18T04:23:26;20.10;75.70
75931;DHT22;64609;47.052;15.462;2023-09-18T04:25:54;20.10;75.60
75931;DHT22;64609;47.052;15.462;2023-09-18T04:28:21;20.00;75.70
75931;DHT22;64609;47.052;15.462;2023-09-18T04:30:47;19.90;75.70
75931;DHT22;64609;47.052;15.462;2023-09-18T04:33:16;19.90;75.90
75931;DHT22;64609;47.052;15.462;2023-09-18T04:35:42;19.90;75.90
75931;DHT22;64609;47.052;15.462;2023-09-18T04:38:08;19.80;75.80
75931;DHT22;64609;47.052;15.462;2023-09-18T04:40:36;19.80;75.90
75931;DHT22;64609;47.052;15.462;2023-09-18T04:43:01;19.80;76.00
75931;DHT22;64609;47.052;15.462;2023-09-18T04:45:31;19.80;76.10
75931;DHT22;64609;47.052;15.462;2023-09-18T04:47:57;19.80;76.00
75931;DHT22;64609;47.052;15.462;2023-09-18T04:50:23;19.80;75.90
75931;DHT22;64609;47.052;15.462;2023-09-18T04:52:49;19.80;75.80
75931;DHT22;64609;47.052;15.462;2023-09-18T04:55:16;19.80;75.80
75931;DHT22;64609;47.052;15.462;2023-09-18T04:57:42;19.90;75.80
75931;DHT22;64609;47.052;15.462;2023-09-18T05:00:08;19.90;75.60
75931;DHT22;64609;47.052;15.462;2023-09-18T05:02:35;19.80;75.70
75931;DHT22;64609;47.052;15.462;2023-09-18T05:05:01;19.80;75.80
75931;DHT22;64609;47.052;15.462;2023-09-18T05:07:29;19.80;75.80
75931;DHT22;64609;47.052;15.462;2023-09-18T05:09:54;19.80;75.80
75931;DHT22;64609;47.052;15.462;2023-09-18T05:12:20;19.90;75.90
75931;DHT22;64609;47.052;15.462;2023-09-18T05:14:45;19.90;76.00
75931;DHT22;64609;47.052;15.462;2023-09-18T05:17:16;19.90;76.10
75931;DHT22;64609;47.052;15.462;2023-09-18T05:19:42;19.90;76.10
75931;DHT22;64609;47.052;15.462;2023-09-18T05:22:08;19.90;76.20
75931;DHT22;64609;47.052;15.462;2023-09-18T05:24:40;20.00;76.50
75931;DHT22;64609;47.052;15.462;2023-09-18T05:27:06;19.90;76.70
75931;DHT22;64609;47.052;15.462;2023-09-18T05:29:33;20.00;76.80
75931;DHT22;64609;47.052;15.462;2023-09-18T05:31:59;20.00;77.00
75931;DHT22;64609;47.052;15.462;2023-09-18T05:34:24;20.00;76.90
75931;DHT22;64609;47.052;15.462;2023-09-18T05:36:50;20.10;77.10
75931;DHT22;64609;47.052;15.462;2023-09-18T05:39:16;20.10;77.30
75931;DHT22;64609;47.052;15.462;2023-09-18T05:41:42;20.10;77.40
75931;DHT22;64609;47.052;15.462;2023-09-18T05:44:07;20.20;77.40
75931;DHT22;64609;47.052;15.462;2023-09-18T05:46:35;20.30;77.50
75931;DHT22;64609;47.052;15.462;2023-09-18T05:49:01;20.30;77.50
75931;DHT22;64609;47.052;15.462;2023-09-18T05:51:26;20.40;77.50
75931;DHT22;64609;47.052;15.462;2023-09-18T05:53:52;20.50;77.40
75931;DHT22;64609;47.052;15.462;2023-09-18T05:56:18;20.60;77.30
75931;DHT22;64609;47.052;15.462;2023-09-18T05:58:44;20.70;77.20
75931;DHT22;64609;47.052;15.462;2023-09-18T06:01:09;20.70;77.10
75931;DHT22;64609;47.052;15.462;2023-09-18T06:03:35;20.80;77.00
75931;DHT22;64609;47.052;15.462;2023-09-18T06:06:02;20.90;76.90
75931;DHT22;64609;47.052;15.462;2023-09-18T06:08:29;20.90;76.80
75931;DHT22;64609;47.052;15.462;2023-09-18T06:10:56;21.00;76.60
75931;DHT22;64609;47.052;15.462;2023-09-18T06:13:21;21.10;76.50
75931;DHT22;64609;47.052;15.462;2023-09-18T06:15:48;21.20;76.50
75931;DHT22;64609;47.052;15.462;2023-09-18T06:18:14;21.20;76.50
75931;DHT22;64609;47.052;15.462;2023-09-18T06:20:39;21.30;76.30
75931;DHT22;64609;47.052;15.462;2023-09-18T06:23:06;21.30;76.10
75931;DHT22;64609;47.052;15.462;2023-09-18T06:25:32;21.50;76.00
75931;DHT22;64609;47.052;15.462;2023-09-18T06:27:58;21.50;75.80
75931;DHT22;64609;47.052;15.462;2023-09-18T06:30:24;21.60;75.60
75931;DHT22;64609;47.052;15.462;2023-09-18T06:32:50;21.70;75.30
75931;DHT22;64609;47.052;15.462;2023-09-18T06:35:16;21.80;75.20
75931;DHT22;64609;47.052;15.462;2023-09-18T06:37:41;21.80;74.90
75931;DHT22;64609;47.052;15.462;2023-09-18T06:40:08;22.00;74.80
75931;DHT22;64609;47.052;15.462;2023-09-18T06:42:33;22.10;74.30
75931;DHT22;64609;47.052;15.462;2023-09-18T06:44:59;22.20;74.00
75931;DHT22;64609;47.052;15.462;2023-09-18T06:47:26;22.30;73.60
75931;DHT22;64609;47.052;15.462;2023-09-18T06:49:52;22.30;73.20
75931;DHT22;64609;47.052;15.462;2023-09-18T06:52:18;22.40;73.10
75931;DHT22;64609;47.052;15.462;2023-09-18T06:54:43;22.40;73.00
75931;DHT22;64609;47.052;15.462;2023-09-18T06:57:09;22.50;72.90
75931;DHT22;64609;47.052;15.462;2023-09-18T06:59:35;22.60;72.80
75931;DHT22;64609;47.052;15.462;2023-09-18T07:02:01;22.70;72.40
75931;DHT22;64609;47.052;15.462;2023-09-18T07:04:27;22.80;72.10
75931;DHT22;64609;47.052;15.462;2023-09-18T07:06:53;22.90;72.10
75931;DHT22;64609;47.052;15.462;2023-09-18T07:09:19;23.10;72.00
75931;DHT22;64609;47.052;15.462;2023-09-18T07:11:48;23.20;71.80
75931;DHT22;64609;47.052;15.462;2023-09-18T07:14:14;23.20;71.60
75931;DHT22;64609;47.052;15.462;2023-09-18T07:16:39;23.40;71.30
75931;DHT22;64609;47.052;15.462;2023-09-18T07:19:05;23.50;71.10
75931;DHT22;64609;47.052;15.462;2023-09-18T07:21:32;23.60;70.80
75931;DHT22;64609;47.052;15.462;2023-09-18T07:24:00;23.60;70.30
75931;DHT22;64609;47.052;15.462;2023-09-18T07:26:25;23.70;70.10
75931;DHT22;64609;47.052;15.462;2023-09-18T07:28:51;23.80;70.10
75931;DHT22;64609;47.052;15.462;2023-09-18T07:31:16;23.90;70.10
75931;DHT22;64609;47.052;15.462;2023-09-18T07:33:42;24.00;69.80
75931;DHT22;64609;47.052;15.462;2023-09-18T07:36:08;24.00;69.50
75931;DHT22;64609;47.052;15.462;2023-09-18T07:38:35;24.10;69.60
75931;DHT22;64609;47.052;15.462;2023-09-18T07:41:02;24.20;69.60
75931;DHT22;64609;47.052;15.462;2023-09-18T07:43:27;24.30;69.50
75931;DHT22;64609;47.052;15.462;2023-09-18T07:45:53;24.40;69.10
75931;DHT22;64609;47.052;15.462;2023-09-18T07:48:22;24.40;68.90
75931;DHT22;64609;47.052;15.462;2023-09-18T07:50:48;24.50;68.80
75931;DHT22;64609;47.052;15.462;2023-09-18T07:53:15;24.60;68.50
75931;DHT22;64609;47.052;15.462;2023-09-18T07:55:41;24.50;68.30
75931;DHT22;64609;47.052;15.462;2023-09-18T07:58:06;24.60;68.30
75931;DHT22;64609;47.052;15.462;2023-09-18T08:00:32;24.70;68.20
75931;DHT22;64609;47.052;15.462;2023-09-18T08:02:58;24.70;67.90
75931;DHT22;64609;47.052;15.462;2023-09-18T08:05:27;24.80;67.90
75931;DHT22;64609;47.052;15.462;2023-09-18T08:07:57;24.90;67.50
75931;DHT22;64609;47.052;15.462;2023-09-18T08:10:27;25.00;67.50
75931;DHT22;64609;47.052;15.462;2023-09-18T08:12:53;25.10;67.20
75931;DHT22;64609;47.052;15.462;2023-09-18T08:15:22;25.20;66.90
75931;DHT22;64609;47.052;15.462;2023-09-18T08:17:48;25.30;66.90
75931;DHT22;64609;47.052;15.462;2023-09-18T08:20:15;25.50;66.80
75931;DHT22;64609;47.052;15.462;2023-09-18T08:22:42;25.60;66.50
75931;DHT22;64609;47.052;15.462;2023-09-18T08:25:09;25.70;66.20
75931;DHT22;64609;47.052;15.462;2023-09-18T08:27:39;25.90;65.90
75931;DHT22;64609;47.052;15.462;2023-09-18T08:30:13;26.00;65.20
75931;DHT22;64609;47.052;15.462;2023-09-18T08:32:40;26.10;65.00
75931;DHT22;64609;47.052;15.462;2023-09-18T08:35:07;26.20;64.80
75931;DHT22;64609;47.052;15.462;2023-09-18T08:37:33;26.20;64.30
75931;DHT22;64609;47.052;15.462;2023-09-18T08:39:58;26.40;64.10
75931;DHT22;64609;47.052;15.462;2023-09-18T08:42:35;26.50;64.20
75931;DHT22;64609;47.052;15.462;2023-09-18T08:45:02;26.50;63.90
75931;DHT22;64609;47.052;15.462;2023-09-18T08:47:30;26.50;63.60
75931;DHT22;64609;47.052;15.462;2023-09-18T08:49:57;26.60;64.10
75931;DHT22;64609;47.052;15.462;2023-09-18T08:52:24;26.80;63.60
75931;DHT22;64609;47.052;15.462;2023-09-18T08:54:52;26.80;63.40
75931;DHT22;64609;47.052;15.462;2023-09-18T08:57:18;26.90;63.10
75931;DHT22;64609;47.052;15.462;2023-09-18T08:59:44;27.00;62.80
75931;DHT22;64609;47.052;15.462;2023-09-18T09:02:10;27.00;62.80
75931;DHT22;64609;47.052;15.462;2023-09-18T09:04:38;27.20;62.90
75931;DHT22;64609;47.052;15.462;2023-09-18T09:07:03;27.20;62.50
75931;DHT22;64609;47.052;15.462;2023-09-18T09:09:30;27.30;62.40
75931;DHT22;64609;47.052;15.462;2023-09-18T09:11:56;27.40;62.30
75931;DHT22;64609;47.052;15.462;2023-09-18T09:14:22;27.60;61.70
75931;DHT22;64609;47.052;15.462;2023-09-18T09:16:54;27.60;61.50
75931;DHT22;64609;47.052;15.462;2023-09-18T09:19:29;27.70;61.40
75931;DHT22;64609;47.052;15.462;2023-09-18T09:21:55;27.80;61.10
75931;DHT22;64609;47.052;15.462;2023-09-18T09:24:42;27.90;61.00
75931;DHT22;64609;47.052;15.462;2023-09-18T09:27:12;27.90;60.80
75931;DHT22;64609;47.052;15.462;2023-09-18T09:29:40;28.10;60.40
75931;DHT22;64609;47.052;15.462;2023-09-18T09:32:18;28.10;59.50
75931;DHT22;64609;47.052;15.462;2023-09-18T09:34:45;28.10;59.90
75931;DHT22;64609;47.052;15.462;2023-09-18T09:37:12;28.10;59.50
75931;DHT22;64609;47.052;15.462;2023-09-18T09:39:50;28.20;59.60
75931;DHT22;64609;47.052;15.462;2023-09-18T09:42:20;28.30;59.70
75931;DHT22;64609;47.052;15.462;2023-09-18T09:45:02;28.30;58.70
75931;DHT22;64609;47.052;15.462;2023-09-18T09:47:33;28.20;57.90
75931;DHT22;64609;47.052;15.462;2023-09-18T09:49:59;27.90;58.60
75931;DHT22;64609;47.052;15.462;2023-09-18T09:52:33;27.90;59.20
75931;DHT22;64609;47.052;15.462;2023-09-18T09:54:59;27.90;58.90
75931;DHT22;64609;47.052;15.462;2023-09-18T09:57:24;27.80;59.00
75931;DHT22;64609;47.052;15.462;2023-09-18T09:59:50;27.80;59.50
75931;DHT22;64609;47.052;15.462;2023-09-18T10:02:17;27.90;59.30
75931;DHT22;64609;47.052;15.462;2023-09-18T10:04:49;28.00;59.40
75931;DHT22;64609;47.052;15.462;2023-09-18T10:07:15;28.10;59.20
75931;DHT22;64609;47.052;15.462;2023-09-18T10:09:42;28.10;58.70
75931;DHT22;64609;47.052;15.462;2023-09-18T10:12:15;28.10;59.20
75931;DHT22;64609;47.052;15.462;2023-09-18T10:14:47;28.30;59.20
75931;DHT22;64609;47.052;15.462;2023-09-18T10:17:18;28.70;58.50
75931;DHT22;64609;47.052;15.462;2023-09-18T10:22:44;28.80;57.00
75931;DHT22;64609;47.052;15.462;2023-09-18T10:25:18;28.80;57.10
75931;DHT22;64609;47.052;15.462;2023-09-18T10:27:47;28.90;57.50
75931;DHT22;64609;47.052;15.462;2023-09-18T10:30:16;28.90;57.10
75931;DHT22;64609;47.052;15.462;2023-09-18T10:32:44;28.80;57.10
75931;DHT22;64609;47.052;15.462;2023-09-18T10:35:14;28.90;57.40
75931;DHT22;64609;47.052;15.462;2023-09-18T10:37:41;29.10;57.10
75931;DHT22;64609;47.052;15.462;2023-09-18T10:40:09;29.40;56.80
75931;DHT22;64609;47.052;15.462;2023-09-18T10:42:38;29.50;55.60
75931;DHT22;64609;47.052;15.462;2023-09-18T10:45:04;29.70;55.80
75931;DHT22;64609;47.052;15.462;2023-09-18T10:47:31;29.80;55.60
75931;DHT22;64609;47.052;15.462;2023-09-18T10:49:56;29.90;54.90
75931;DHT22;64609;47.052;15.462;2023-09-18T10:52:22;29.80;54.80
75931;DHT22;64609;47.052;15.462;2023-09-18T10:54:48;29.90;55.00
75931;DHT22;64609;47.052;15.462;2023-09-18T10:57:14;29.90;54.60
75931;DHT22;64609;47.052;15.462;2023-09-18T10:59:46;30.00;54.10
75931;DHT22;64609;47.052;15.462;2023-09-18T11:02:16;30.00;53.90
75931;DHT22;64609;47.052;15.462;2023-09-18T11:04:43;29.80;53.70
75931;DHT22;64609;47.052;15.462;2023-09-18T11:07:19;29.80;54.20
75931;DHT22;64609;47.052;15.462;2023-09-18T11:09:45;29.70;53.90
75931;DHT22;64609;47.052;15.462;2023-09-18T11:12:12;29.80;54.20
75931;DHT22;64609;47.052;15.462;2023-09-18T11:14:58;29.90;53.50
75931;DHT22;64609;47.052;15.462;2023-09-18T11:17:29;30.00;53.70
75931;DHT22;64609;47.052;15.462;2023-09-18T11:20:24;30.10;53.70
75931;DHT22;64609;47.052;15.462;2023-09-18T11:25:40;29.60;53.40
75931;DHT22;64609;47.052;15.462;2023-09-18T11:28:08;29.50;54.60
75931;DHT22;64609;47.052;15.462;2023-09-18T11:30:37;29.50;54.70
75931;DHT22;64609;47.052;15.462;2023-09-18T11:33:05;29.50;54.80
75931;DHT22;64609;47.052;15.462;2023-09-18T11:35:32;29.60;55.10
75931;DHT22;64609;47.052;15.462;2023-09-18T11:38:09;30.00;55.10
75931;DHT22;64609;47.052;15.462;2023-09-18T11:40:37;30.50;54.00
75931;DHT22;64609;47.052;15.462;2023-09-18T11:43:25;30.50;53.00
75931;DHT22;64609;47.052;15.462;2023-09-18T11:45:53;30.50;52.70
75931;DHT22;64609;47.052;15.462;2023-09-18T11:48:20;30.10;53.10
75931;DHT22;64609;47.052;15.462;2023-09-18T11:50:47;30.00;53.60
75931;DHT22;64609;47.052;15.462;2023-09-18T11:53:17;29.80;53.90
75931;DHT22;64609;47.052;15.462;2023-09-18T11:55:44;29.40;54.90
75931;DHT22;64609;47.052;15.462;2023-09-18T11:58:10;29.60;55.40
75931;DHT22;64609;47.052;15.462;2023-09-18T12:00:36;29.80;54.90
75931;DHT22;64609;47.052;15.462;2023-09-18T12:03:29;29.80;54.70
75931;DHT22;64609;47.052;15.462;2023-09-18T12:06:01;29.80;54.80
75931;DHT22;64609;47.052;15.462;2023-09-18T12:08:31;30.00;54.40
75931;DHT22;64609;47.052;15.462;2023-09-18T12:10:58;30.20;53.60
75931;DHT22;64609;47.052;15.462;2023-09-18T12:13:27;30.40;53.60
75931;DHT22;64609;47.052;15.462;2023-09-18T12:16:03;30.40;53.40
75931;DHT22;64609;47.052;15.462;2023-09-18T12:18:32;30.10;53.50
75931;DHT22;64609;47.052;15.462;2023-09-18T12:21:01;29.90;53.80
75931;DHT22;64609;47.052;15.462;2023-09-18T12:23:36;29.60;54.00
75931;DHT22;64609;47.052;15.462;2023-09-18T12:26:01;29.40;54.20
75931;DHT22;64609;47.052;15.462;2023-09-18T12:28:29;29.40;54.60
75931;DHT22;64609;47.052;15.462;2023-09-18T12:30:56;29.30;54.60
75931;DHT22;64609;47.052;15.462;2023-09-18T12:33:25;29.20;55.20
75931;DHT22;64609;47.052;15.462;2023-09-18T12:35:51;29.20;54.80
75931;DHT22;64609;47.052;15.462;2023-09-18T12:38:18;29.20;54.90
75931;DHT22;64609;47.052;15.462;2023-09-18T12:40:52;29.10;54.60
75931;DHT22;64609;47.052;15.462;2023-09-18T12:43:18;28.90;54.60
75931;DHT22;64609;47.052;15.462;2023-09-18T12:45:45;28.80;55.10
75931;DHT22;64609;47.052;15.462;2023-09-18T12:48:13;28.60;55.80
75931;DHT22;64609;47.052;15.462;2023-09-18T12:50:39;28.60;56.10
75931;DHT22;64609;47.052;15.462;2023-09-18T12:53:12;28.50;56.20
75931;DHT22;64609;47.052;15.462;2023-09-18T12:55:39;28.50;56.10
75931;DHT22;64609;47.052;15.462;2023-09-18T12:58:05;28.50;56.00
75931;DHT22;64609;47.052;15.462;2023-09-18T13:00:34;28.60;56.10
75931;DHT22;64609;47.052;15.462;2023-09-18T13:03:00;28.70;55.70
75931;DHT22;64609;47.052;15.462;2023-09-18T13:05:26;28.70;55.40
75931;DHT22;64609;47.052;15.462;2023-09-18T13:07:53;28.50;55.50
75931;DHT22;64609;47.052;15.462;2023-09-18T13:10:19;28.50;55.90
75931;DHT22;64609;47.052;15.462;2023-09-18T13:12:51;28.40;56.00
75931;DHT22;64609;47.052;15.462;2023-09-18T13:15:29;28.30;56.30
75931;DHT22;64609;47.052;15.462;2023-09-18T13:17:57;28.40;56.70
75931;DHT22;64609;47.052;15.462;2023-09-18T13:20:28;28.40;56.70
75931;DHT22;64609;47.052;15.462;2023-09-18T13:22:56;28.30;56.60
75931;DHT22;64609;47.052;15.462;2023-09-18T13:25:28;28.30;56.80
75931;DHT22;64609;47.052;15.462;2023-09-18T13:27:54;28.30;56.80
75931;DHT22;64609;47.052;15.462;2023-09-18T13:30:21;28.30;56.80
75931;DHT22;64609;47.052;15.462;2023-09-18T13:32:49;28.40;56.70
75931;DHT22;64609;47.052;15.462;2023-09-18T13:35:18;28.60;56.70
75931;DHT22;64609;47.052;15.462;2023-09-18T13:37:44;28.90;56.40
75931;DHT22;64609;47.052;15.462;2023-09-18T13:40:11;29.00;56.20
75931;DHT22;64609;47.052;15.462;2023-09-18T13:42:38;29.00;55.80
75931;DHT22;64609;47.052;15.462;2023-09-18T13:45:06;29.00;55.90
75931;DHT22;64609;47.052;15.462;2023-09-18T13:47:32;29.00;55.90
75931;DHT22;64609;47.052;15.462;2023-09-18T13:49:59;29.00;55.80
75931;DHT22;64609;47.052;15.462;2023-09-18T13:52:32;28.90;55.80
75931;DHT22;64609;47.052;15.462;2023-09-18T13:54:58;28.90;56.30
75931;DHT22;64609;47.052;15.462;2023-09-18T13:57:24;28.90;56.50
75931;DHT22;64609;47.052;15.462;2023-09-18T13:59:51;29.00;56.20
75931;DHT22;64609;47.052;15.462;2023-09-18T14:02:17;28.90;55.80
75931;DHT22;64609;47.052;15.462;2023-09-18T14:04:44;28.80;56.00
75931;DHT22;64609;47.052;15.462;2023-09-18T14:07:10;28.90;56.30
75931;DHT22;64609;47.052;15.462;2023-09-18T14:09:37;28.90;56.80
75931;DHT22;64609;47.052;15.462;2023-09-18T14:12:03;28.80;56.50
75931;DHT22;64609;47.052;15.462;2023-09-18T14:14:29;28.80;56.80
75931;DHT22;64609;47.052;15.462;2023-09-18T14:16:55;28.80;56.70
75931;DHT22;64609;47.052;15.462;2023-09-18T14:19:21;28.90;56.90
75931;DHT22;64609;47.052;15.462;2023-09-18T14:21:46;28.90;58.30
75931;DHT22;64609;47.052;15.462;2023-09-18T14:24:15;28.90;57.60
75931;DHT22;64609;47.052;15.462;2023-09-18T14:26:43;28.90;57.40
75931;DHT22;64609;47.052;15.462;2023-09-18T14:29:09;28.90;57.40
75931;DHT22;64609;47.052;15.462;2023-09-18T14:31:36;28.90;57.20
75931;DHT22;64609;47.052;15.462;2023-09-18T14:34:03;28.80;57.30
75931;DHT22;64609;47.052;15.462;2023-09-18T14:36:29;28.80;57.90
75931;DHT22;64609;47.052;15.462;2023-09-18T14:38:55;28.70;58.30
75931;DHT22;64609;47.052;15.462;2023-09-18T14:41:23;28.70;58.20
75931;DHT22;64609;47.052;15.462;2023-09-18T14:43:50;28.70;58.20
75931;DHT22;64609;47.052;15.462;2023-09-18T14:46:17;28.70;58.00
75931;DHT22;64609;47.052;15.462;2023-09-18T14:48:42;28.70;58.20
75931;DHT22;64609;47.052;15.462;2023-09-18T14:51:08;28.60;58.20
75931;DHT22;64609;47.052;15.462;2023-09-18T14:53:34;28.60;58.60
75931;DHT22;64609;47.052;15.462;2023-09-18T14:56:00;28.50;59.30
75931;DHT22;64609;47.052;15.462;2023-09-18T14:58:25;28.40;58.70
75931;DHT22;64609;47.052;15.462;2023-09-18T15:00:53;28.40;58.60
75931;DHT22;64609;47.052;15.462;2023-09-18T15:03:18;28.40;58.40
75931;DHT22;64609;47.052;15.462;2023-09-18T15:05:44;28.30;58.30
75931;DHT22;64609;47.052;15.462;2023-09-18T15:08:10;28.30;58.30
75931;DHT22;64609;47.052;15.462;2023-09-18T15:10:37;28.30;58.60
75931;DHT22;64609;47.052;15.462;2023-09-18T15:13:03;28.20;58.90
75931;DHT22;64609;47.052;15.462;2023-09-18T15:15:28;28.20;59.10
75931;DHT22;64609;47.052;15.462;2023-09-18T15:17:54;28.20;59.40
75931;DHT22;64609;47.052;15.462;2023-09-18T15:20:20;28.20;59.70
75931;DHT22;64609;47.052;15.462;2023-09-18T15:22:50;28.20;59.90
75931;DHT22;64609;47.052;15.462;2023-09-18T15:25:15;28.10;60.00
75931;DHT22;64609;47.052;15.462;2023-09-18T15:27:42;28.10;60.10